sensor_id;sensor_type;location;lat;lon;timestamp;P1;durP1;ratioP1;P2;durP2;ratioP2
67712;SDS011;67640;55.784;49.138;2024-01-10T00:02:17;1.53;;;0.20;;
67712;SDS011;67640;55.784;49.138;2024-01-10T00:07:22;3.22;;;0.68;;
67712;SDS011;67640;55.784;49.138;2024-01-10T00:12:41;1.82;;;0.60;;
67712;SDS011;67640;55.784;49.138;2024-01-10T00:18:06;2.12;;;0.50;;
67712;SDS011;67640;55.784;49.138;2024-01-10T00:23:25;3.40;;;0.57;;
67712;SDS011;67640;55.784;49.138;2024-01-10T00:28:30;4.70;;;1.00;;
67712;SDS011;67640;55.784;49.138;2024-01-10T00:33:35;2.50;;;0.70;;
67712;SDS011;67640;55.784;49.138;2024-01-10T00:38:54;1.20;;;0.50;;
67712;SDS011;67640;55.784;49.138;2024-01-10T00:43:59;2.58;;;0.60;;
67712;SDS011;67640;55.784;49.138;2024-01-10T00:49:17;1.67;;;0.50;;
67712;SDS011;67640;55.784;49.138;2024-01-10T00:54:22;2.98;;;0.78;;
67712;SDS011;67640;55.784;49.138;2024-01-10T00:59:41;4.17;;;0.80;;
67712;SDS011;67640;55.784;49.138;2024-01-10T01:05:01;2.87;;;0.72;;
67712;SDS011;67640;55.784;49.138;2024-01-10T01:10:22;1.13;;;0.50;;
67712;SDS011;67640;55.784;49.138;2024-01-10T01:15:41;0.95;;;0.33;;
67712;SDS011;67640;55.784;49.138;2024-01-10T01:20:46;2.20;;;0.57;;
67712;SDS011;67640;55.784;49.138;2024-01-10T01:25:51;4.47;;;0.93;;
67712;SDS011;67640;55.784;49.138;2024-01-10T01:31:08;3.10;;;0.80;;
67712;SDS011;67640;55.784;49.138;2024-01-10T01:36:14;4.40;;;0.78;;
67712;SDS011;67640;55.784;49.138;2024-01-10T01:41:19;1.83;;;0.57;;
67712;SDS011;67640;55.784;49.138;2024-01-10T01:46:36;3.00;;;0.70;;
67712;SDS011;67640;55.784;49.138;2024-01-10T01:51:43;4.05;;;0.78;;
67712;SDS011;67640;55.784;49.138;2024-01-10T01:57:02;1.97;;;0.77;;
67712;SDS011;67640;55.784;49.138;2024-01-10T02:02:21;1.32;;;0.37;;
67712;SDS011;67640;55.784;49.138;2024-01-10T02:07:41;2.92;;;0.50;;
67712;SDS011;67640;55.784;49.138;2024-01-10T02:13:00;1.60;;;0.40;;
67712;SDS011;67640;55.784;49.138;2024-01-10T02:18:05;2.55;;;0.80;;
67712;SDS011;67640;55.784;49.138;2024-01-10T02:23:10;1.63;;;0.40;;
67712;SDS011;67640;55.784;49.138;2024-01-10T02:28:15;1.95;;;0.70;;
67712;SDS011;67640;55.784;49.138;2024-01-10T02:33:34;2.05;;;0.65;;
67712;SDS011;67640;55.784;49.138;2024-01-10T02:38:53;5.17;;;0.80;;
67712;SDS011;67640;55.784;49.138;2024-01-10T02:44:12;1.92;;;0.75;;
67712;SDS011;67640;55.784;49.138;2024-01-10T02:49:17;4.37;;;0.80;;
67712;SDS011;67640;55.784;49.138;2024-01-10T02:54:22;2.65;;;0.57;;
67712;SDS011;67640;55.784;49.138;2024-01-10T02:59:27;2.42;;;0.70;;
67712;SDS011;67640;55.784;49.138;2024-01-10T03:04:45;1.40;;;0.55;;
67712;SDS011;67640;55.784;49.138;2024-01-10T03:09:50;5.67;;;0.78;;
67712;SDS011;67640;55.784;49.138;2024-01-10T03:14:55;2.52;;;0.60;;
67712;SDS011;67640;55.784;49.138;2024-01-10T03:20:15;2.57;;;0.63;;
67712;SDS011;67640;55.784;49.138;2024-01-10T03:25:34;1.90;;;0.70;;
67712;SDS011;67640;55.784;49.138;2024-01-10T03:30:54;1.55;;;0.50;;
67712;SDS011;67640;55.784;49.138;2024-01-10T03:35:59;2.73;;;0.43;;
67712;SDS011;67640;55.784;49.138;2024-01-10T03:41:24;3.62;;;0.93;;
67712;SDS011;67640;55.784;49.138;2024-01-10T03:46:42;4.47;;;0.85;;
67712;SDS011;67640;55.784;49.138;2024-01-10T03:51:47;3.25;;;0.50;;
67712;SDS011;67640;55.784;49.138;2024-01-10T03:57:05;2.33;;;0.60;;
67712;SDS011;67640;55.784;49.138;2024-01-10T04:02:10;0.82;;;0.20;;
67712;SDS011;67640;55.784;49.138;2024-01-10T04:07:29;2.42;;;0.70;;
67712;SDS011;67640;55.784;49.138;2024-01-10T04:12:34;2.80;;;0.80;;
67712;SDS011;67640;55.784;49.138;2024-01-10T04:17:53;5.03;;;0.95;;
67712;SDS011;67640;55.784;49.138;2024-01-10T04:23:13;3.47;;;1.00;;
67712;SDS011;67640;55.784;49.138;2024-01-10T04:28:17;2.25;;;0.57;;
67712;SDS011;67640;55.784;49.138;2024-01-10T04:33:24;6.83;;;1.12;;
67712;SDS011;67640;55.784;49.138;2024-01-10T04:38:29;3.13;;;0.60;;
67712;SDS011;67640;55.784;49.138;2024-01-10T04:43:48;2.22;;;0.55;;
67712;SDS011;67640;55.784;49.138;2024-01-10T04:49:05;2.10;;;0.70;;
67712;SDS011;67640;55.784;49.138;2024-01-10T04:54:11;2.40;;;0.50;;
67712;SDS011;67640;55.784;49.138;2024-01-10T04:59:16;0.88;;;0.33;;
67712;SDS011;67640;55.784;49.138;2024-01-10T05:04:21;3.75;;;0.65;;
67712;SDS011;67640;55.784;49.138;2024-01-10T05:09:40;2.83;;;0.70;;
67712;SDS011;67640;55.784;49.138;2024-01-10T05:14:59;2.80;;;1.30;;
67712;SDS011;67640;55.784;49.138;2024-01-10T05:20:13;5.40;;;0.53;;
67712;SDS011;67640;55.784;49.138;2024-01-10T05:25:32;8.83;;;0.70;;
67712;SDS011;67640;55.784;49.138;2024-01-10T05:30:52;2.60;;;1.07;;
67712;SDS011;67640;55.784;49.138;2024-01-10T05:35:56;3.93;;;0.60;;
67712;SDS011;67640;55.784;49.138;2024-01-10T05:41:01;3.98;;;0.68;;
67712;SDS011;67640;55.784;49.138;2024-01-10T05:46:31;2.40;;;0.82;;
67712;SDS011;67640;55.784;49.138;2024-01-10T05:51:36;4.72;;;0.70;;
67712;SDS011;67640;55.784;49.138;2024-01-10T05:56:42;1.50;;;0.65;;
67712;SDS011;67640;55.784;49.138;2024-01-10T06:02:01;1.92;;;0.47;;
67712;SDS011;67640;55.784;49.138;2024-01-10T06:07:21;4.47;;;0.70;;
67712;SDS011;67640;55.784;49.138;2024-01-10T06:12:40;1.47;;;0.95;;
67712;SDS011;67640;55.784;49.138;2024-01-10T06:17:46;2.33;;;0.78;;
67712;SDS011;67640;55.784;49.138;2024-01-10T06:22:52;7.75;;;1.62;;
67712;SDS011;67640;55.784;49.138;2024-01-10T06:27:57;3.37;;;1.25;;
67712;SDS011;67640;55.784;49.138;2024-01-10T06:33:16;4.60;;;1.40;;
67712;SDS011;67640;55.784;49.138;2024-01-10T06:38:35;2.62;;;0.70;;
67712;SDS011;67640;55.784;49.138;2024-01-10T06:43:54;3.20;;;1.05;;
67712;SDS011;67640;55.784;49.138;2024-01-10T06:49:00;4.72;;;0.53;;
67712;SDS011;67640;55.784;49.138;2024-01-10T06:54:18;5.10;;;0.72;;
67712;SDS011;67640;55.784;49.138;2024-01-10T06:59:23;1.57;;;0.50;;
67712;SDS011;67640;55.784;49.138;2024-01-10T07:04:29;1.77;;;0.50;;
67712;SDS011;67640;55.784;49.138;2024-01-10T07:09:48;3.85;;;0.70;;
67712;SDS011;67640;55.784;49.138;2024-01-10T07:15:07;7.43;;;1.00;;
67712;SDS011;67640;55.784;49.138;2024-01-10T07:20:27;2.63;;;1.10;;
67712;SDS011;67640;55.784;49.138;2024-01-10T07:25:32;4.97;;;1.52;;
67712;SDS011;67640;55.784;49.138;2024-01-10T07:30:52;4.95;;;1.12;;
67712;SDS011;67640;55.784;49.138;2024-01-10T07:36:11;4.87;;;0.98;;
67712;SDS011;67640;55.784;49.138;2024-01-10T07:41:30;7.58;;;1.87;;
67712;SDS011;67640;55.784;49.138;2024-01-10T07:46:49;5.80;;;1.17;;
67712;SDS011;67640;55.784;49.138;2024-01-10T07:51:54;2.20;;;0.72;;
67712;SDS011;67640;55.784;49.138;2024-01-10T07:56:59;7.75;;;1.27;;
67712;SDS011;67640;55.784;49.138;2024-01-10T08:02:04;7.33;;;1.70;;
67712;SDS011;67640;55.784;49.138;2024-01-10T08:07:23;5.70;;;2.12;;
67712;SDS011;67640;55.784;49.138;2024-01-10T08:12:28;4.03;;;1.17;;
67712;SDS011;67640;55.784;49.138;2024-01-10T08:17:34;6.53;;;2.07;;
67712;SDS011;67640;55.784;49.138;2024-01-10T08:23:12;9.08;;;2.72;;
67712;SDS011;67640;55.784;49.138;2024-01-10T08:28:31;7.53;;;2.13;;
67712;SDS011;67640;55.784;49.138;2024-01-10T08:33:51;5.08;;;1.35;;
67712;SDS011;67640;55.784;49.138;2024-01-10T08:38:56;7.97;;;1.67;;
67712;SDS011;67640;55.784;49.138;2024-01-10T08:44:02;3.67;;;0.97;;
67712;SDS011;67640;55.784;49.138;2024-01-10T08:49:21;6.42;;;1.22;;
67712;SDS011;67640;55.784;49.138;2024-01-10T08:54:39;2.20;;;0.75;;
67712;SDS011;67640;55.784;49.138;2024-01-10T09:00:00;3.80;;;1.10;;
67712;SDS011;67640;55.784;49.138;2024-01-10T09:05:07;4.83;;;1.42;;
67712;SDS011;67640;55.784;49.138;2024-01-10T09:10:12;6.97;;;1.40;;
67712;SDS011;67640;55.784;49.138;2024-01-10T09:15:31;8.13;;;1.15;;
67712;SDS011;67640;55.784;49.138;2024-01-10T09:20:50;4.00;;;1.30;;
67712;SDS011;67640;55.784;49.138;2024-01-10T09:26:09;4.73;;;1.40;;
67712;SDS011;67640;55.784;49.138;2024-01-10T09:31:14;7.95;;;2.00;;
67712;SDS011;67640;55.784;49.138;2024-01-10T09:36:19;6.22;;;1.52;;
67712;SDS011;67640;55.784;49.138;2024-01-10T09:41:38;4.40;;;1.43;;
67712;SDS011;67640;55.784;49.138;2024-01-10T09:57:43;4.15;;;1.20;;
67712;SDS011;67640;55.784;49.138;2024-01-10T10:02:48;3.30;;;1.17;;
67712;SDS011;67640;55.784;49.138;2024-01-10T10:07:56;4.08;;;1.65;;
67712;SDS011;67640;55.784;49.138;2024-01-10T10:18:53;7.60;;;1.90;;
67712;SDS011;67640;55.784;49.138;2024-01-10T10:24:12;6.83;;;2.08;;
67712;SDS011;67640;55.784;49.138;2024-01-10T10:29:18;3.27;;;1.12;;
67712;SDS011;67640;55.784;49.138;2024-01-10T10:34:23;7.97;;;1.27;;
67712;SDS011;67640;55.784;49.138;2024-01-10T10:39:33;6.00;;;1.67;;
67712;SDS011;67640;55.784;49.138;2024-01-10T10:44:53;5.20;;;1.77;;
67712;SDS011;67640;55.784;49.138;2024-01-10T10:49:59;7.28;;;1.27;;
67712;SDS011;67640;55.784;49.138;2024-01-10T10:55:05;4.87;;;1.20;;
67712;SDS011;67640;55.784;49.138;2024-01-10T11:00:25;4.85;;;1.07;;
67712;SDS011;67640;55.784;49.138;2024-01-10T11:05:44;4.20;;;1.20;;
67712;SDS011;67640;55.784;49.138;2024-01-10T11:11:04;6.53;;;1.20;;
67712;SDS011;67640;55.784;49.138;2024-01-10T11:32:21;19.80;;;2.55;;
67712;SDS011;67640;55.784;49.138;2024-01-10T11:43:19;6.20;;;1.82;;
67712;SDS011;67640;55.784;49.138;2024-01-10T11:54:02;7.20;;;1.73;;
67712;SDS011;67640;55.784;49.138;2024-01-10T12:05:04;5.15;;;1.45;;
67712;SDS011;67640;55.784;49.138;2024-01-10T12:10:09;7.13;;;1.70;;
67712;SDS011;67640;55.784;49.138;2024-01-10T12:15:15;7.10;;;2.33;;
67712;SDS011;67640;55.784;49.138;2024-01-10T12:20:20;12.82;;;2.22;;
67712;SDS011;67640;55.784;49.138;2024-01-10T12:25:39;6.53;;;1.97;;
67712;SDS011;67640;55.784;49.138;2024-01-10T12:30:58;9.55;;;2.33;;
67712;SDS011;67640;55.784;49.138;2024-01-10T12:36:46;8.65;;;2.00;;
67712;SDS011;67640;55.784;49.138;2024-01-10T12:41:50;14.13;;;3.00;;
67712;SDS011;67640;55.784;49.138;2024-01-10T12:46:54;12.13;;;3.35;;
67712;SDS011;67640;55.784;49.138;2024-01-10T12:52:14;16.73;;;3.27;;
67712;SDS011;67640;55.784;49.138;2024-01-10T12:57:18;8.48;;;2.70;;
67712;SDS011;67640;55.784;49.138;2024-01-10T13:02:37;5.75;;;2.40;;
67712;SDS011;67640;55.784;49.138;2024-01-10T13:07:41;10.57;;;2.87;;
67712;SDS011;67640;55.784;49.138;2024-01-10T13:12:46;8.18;;;2.55;;
67712;SDS011;67640;55.784;49.138;2024-01-10T13:18:04;8.83;;;2.75;;
67712;SDS011;67640;55.784;49.138;2024-01-10T13:23:09;4.67;;;1.53;;
67712;SDS011;67640;55.784;49.138;2024-01-10T13:28:15;9.10;;;2.35;;
67712;SDS011;67640;55.784;49.138;2024-01-10T13:33:30;7.85;;;2.58;;
67712;SDS011;67640;55.784;49.138;2024-01-10T13:38:49;10.23;;;2.83;;
67712;SDS011;67640;55.784;49.138;2024-01-10T13:44:08;8.28;;;2.30;;
67712;SDS011;67640;55.784;49.138;2024-01-10T13:49:27;11.90;;;2.43;;
67712;SDS011;67640;55.784;49.138;2024-01-10T13:54:34;11.08;;;2.00;;
67712;SDS011;67640;55.784;49.138;2024-01-10T13:59:39;6.05;;;1.52;;
67712;SDS011;67640;55.784;49.138;2024-01-10T14:04:58;9.13;;;1.47;;
67712;SDS011;67640;55.784;49.138;2024-01-10T14:10:18;6.85;;;1.85;;
67712;SDS011;67640;55.784;49.138;2024-01-10T14:15:48;7.47;;;1.90;;
67712;SDS011;67640;55.784;49.138;2024-01-10T14:20:53;4.17;;;1.53;;
67712;SDS011;67640;55.784;49.138;2024-01-10T14:25:59;7.35;;;1.52;;
67712;SDS011;67640;55.784;49.138;2024-01-10T14:31:09;7.65;;;1.95;;
67712;SDS011;67640;55.784;49.138;2024-01-10T14:36:28;6.95;;;3.05;;
67712;SDS011;67640;55.784;49.138;2024-01-10T14:41:48;5.62;;;1.87;;
67712;SDS011;67640;55.784;49.138;2024-01-10T14:46:53;5.40;;;1.47;;
67712;SDS011;67640;55.784;49.138;2024-01-10T14:52:11;8.20;;;1.80;;
67712;SDS011;67640;55.784;49.138;2024-01-10T14:57:16;3.27;;;1.17;;
67712;SDS011;67640;55.784;49.138;2024-01-10T15:02:35;7.17;;;1.97;;
67712;SDS011;67640;55.784;49.138;2024-01-10T15:07:54;4.65;;;1.47;;
67712;SDS011;67640;55.784;49.138;2024-01-10T15:13:13;4.62;;;1.75;;
67712;SDS011;67640;55.784;49.138;2024-01-10T15:18:33;4.83;;;1.03;;
67712;SDS011;67640;55.784;49.138;2024-01-10T15:23:38;6.35;;;2.45;;
67712;SDS011;67640;55.784;49.138;2024-01-10T15:28:44;7.10;;;3.17;;
67712;SDS011;67640;55.784;49.138;2024-01-10T15:34:03;10.55;;;3.08;;
67712;SDS011;67640;55.784;49.138;2024-01-10T15:39:22;12.37;;;2.77;;
67712;SDS011;67640;55.784;49.138;2024-01-10T15:44:41;2.37;;;1.02;;
67712;SDS011;67640;55.784;49.138;2024-01-10T15:49:46;11.33;;;2.47;;
67712;SDS011;67640;55.784;49.138;2024-01-10T15:55:06;8.55;;;1.92;;
67712;SDS011;67640;55.784;49.138;2024-01-10T16:00:12;9.50;;;2.30;;
67712;SDS011;67640;55.784;49.138;2024-01-10T16:05:32;6.22;;;1.40;;
67712;SDS011;67640;55.784;49.138;2024-01-10T16:10:51;11.30;;;2.58;;
67712;SDS011;67640;55.784;49.138;2024-01-10T16:15:56;10.08;;;2.50;;
67712;SDS011;67640;55.784;49.138;2024-01-10T16:21:15;13.60;;;2.47;;
67712;SDS011;67640;55.784;49.138;2024-01-10T16:26:20;4.70;;;1.67;;
67712;SDS011;67640;55.784;49.138;2024-01-10T16:31:25;5.50;;;1.42;;
67712;SDS011;67640;55.784;49.138;2024-01-10T16:37:02;5.03;;;1.70;;
67712;SDS011;67640;55.784;49.138;2024-01-10T16:42:07;12.77;;;2.90;;
67712;SDS011;67640;55.784;49.138;2024-01-10T16:47:11;11.40;;;2.10;;
67712;SDS011;67640;55.784;49.138;2024-01-10T16:52:16;9.13;;;2.67;;
67712;SDS011;67640;55.784;49.138;2024-01-10T16:57:20;9.83;;;1.73;;
67712;SDS011;67640;55.784;49.138;2024-01-10T17:02:41;8.83;;;1.75;;
67712;SDS011;67640;55.784;49.138;2024-01-10T17:07:45;9.10;;;2.97;;
67712;SDS011;67640;55.784;49.138;2024-01-10T17:13:05;7.70;;;1.98;;
67712;SDS011;67640;55.784;49.138;2024-01-10T17:18:24;4.90;;;1.62;;
67712;SDS011;67640;55.784;49.138;2024-01-10T17:23:28;9.57;;;2.13;;
67712;SDS011;67640;55.784;49.138;2024-01-10T17:28:54;11.78;;;2.72;;
67712;SDS011;67640;55.784;49.138;2024-01-10T17:33:59;6.17;;;2.27;;
67712;SDS011;67640;55.784;49.138;2024-01-10T17:39:05;5.37;;;2.20;;
67712;SDS011;67640;55.784;49.138;2024-01-10T17:44:10;7.03;;;2.42;;
67712;SDS011;67640;55.784;49.138;2024-01-10T17:49:28;10.32;;;2.55;;
67712;SDS011;67640;55.784;49.138;2024-01-10T17:54:34;13.03;;;3.37;;
67712;SDS011;67640;55.784;49.138;2024-01-10T17:59:39;8.40;;;2.25;;
67712;SDS011;67640;55.784;49.138;2024-01-10T18:04:58;5.67;;;1.80;;
67712;SDS011;67640;55.784;49.138;2024-01-10T18:10:18;10.93;;;2.93;;
67712;SDS011;67640;55.784;49.138;2024-01-10T18:15:37;8.35;;;2.42;;
67712;SDS011;67640;55.784;49.138;2024-01-10T18:20:42;19.67;;;3.33;;
67712;SDS011;67640;55.784;49.138;2024-01-10T18:26:00;24.10;;;4.00;;
67712;SDS011;67640;55.784;49.138;2024-01-10T18:31:05;21.80;;;4.62;;
67712;SDS011;67640;55.784;49.138;2024-01-10T18:36:11;10.93;;;3.00;;
67712;SDS011;67640;55.784;49.138;2024-01-10T18:41:30;17.67;;;3.22;;
67712;SDS011;67640;55.784;49.138;2024-01-10T18:46:49;14.55;;;1.92;;
67712;SDS011;67640;55.784;49.138;2024-01-10T18:52:09;4.57;;;1.40;;
67712;SDS011;67640;55.784;49.138;2024-01-10T18:57:15;4.62;;;1.22;;
67712;SDS011;67640;55.784;49.138;2024-01-10T19:02:34;5.72;;;1.95;;
67712;SDS011;67640;55.784;49.138;2024-01-10T19:07:53;5.58;;;1.55;;
67712;SDS011;67640;55.784;49.138;2024-01-10T19:13:12;5.92;;;1.50;;
67712;SDS011;67640;55.784;49.138;2024-01-10T19:18:31;7.43;;;1.70;;
67712;SDS011;67640;55.784;49.138;2024-01-10T19:23:37;9.78;;;1.32;;
67712;SDS011;67640;55.784;49.138;2024-01-10T19:28:56;9.18;;;2.37;;
67712;SDS011;67640;55.784;49.138;2024-01-10T19:34:02;17.33;;;3.23;;
67712;SDS011;67640;55.784;49.138;2024-01-10T19:39:24;10.15;;;3.45;;
67712;SDS011;67640;55.784;49.138;2024-01-10T19:44:43;6.10;;;1.85;;
67712;SDS011;67640;55.784;49.138;2024-01-10T19:50:02;5.90;;;1.63;;
67712;SDS011;67640;55.784;49.138;2024-01-10T19:55:21;5.10;;;1.52;;
67712;SDS011;67640;55.784;49.138;2024-01-10T20:00:26;3.83;;;1.50;;
67712;SDS011;67640;55.784;49.138;2024-01-10T20:05:31;15.78;;;3.40;;
67712;SDS011;67640;55.784;49.138;2024-01-10T20:10:35;19.35;;;4.70;;
67712;SDS011;67640;55.784;49.138;2024-01-10T20:15:55;20.80;;;4.30;;
67712;SDS011;67640;55.784;49.138;2024-01-10T20:26:38;6.30;;;1.55;;
67712;SDS011;67640;55.784;49.138;2024-01-10T20:31:56;7.28;;;2.33;;
67712;SDS011;67640;55.784;49.138;2024-01-10T20:37:17;10.63;;;2.70;;
67712;SDS011;67640;55.784;49.138;2024-01-10T20:42:36;24.82;;;5.55;;
67712;SDS011;67640;55.784;49.138;2024-01-10T20:48:02;23.00;;;4.13;;
67712;SDS011;67640;55.784;49.138;2024-01-10T20:53:08;6.72;;;1.65;;
67712;SDS011;67640;55.784;49.138;2024-01-10T20:58:25;4.60;;;0.95;;
67712;SDS011;67640;55.784;49.138;2024-01-10T21:03:30;8.50;;;1.55;;
67712;SDS011;67640;55.784;49.138;2024-01-10T21:08:48;4.47;;;1.07;;
67712;SDS011;67640;55.784;49.138;2024-01-10T21:13:53;5.33;;;1.30;;
67712;SDS011;67640;55.784;49.138;2024-01-10T21:19:12;5.33;;;1.67;;
67712;SDS011;67640;55.784;49.138;2024-01-10T21:24:32;3.50;;;0.83;;
67712;SDS011;67640;55.784;49.138;2024-01-10T21:29:51;4.03;;;1.00;;
67712;SDS011;67640;55.784;49.138;2024-01-10T21:35:10;7.57;;;1.60;;
67712;SDS011;67640;55.784;49.138;2024-01-10T21:40:15;7.45;;;1.98;;
67712;SDS011;67640;55.784;49.138;2024-01-10T21:45:34;8.43;;;1.75;;
67712;SDS011;67640;55.784;49.138;2024-01-10T21:50:42;8.23;;;1.67;;
67712;SDS011;67640;55.784;49.138;2024-01-10T21:55:59;5.83;;;1.53;;
67712;SDS011;67640;55.784;49.138;2024-01-10T22:01:05;1.92;;;0.72;;
67712;SDS011;67640;55.784;49.138;2024-01-10T22:06:11;3.05;;;0.57;;
67712;SDS011;67640;55.784;49.138;2024-01-10T22:11:30;6.43;;;1.23;;
67712;SDS011;67640;55.784;49.138;2024-01-10T22:16:49;5.28;;;0.60;;
67712;SDS011;67640;55.784;49.138;2024-01-10T22:22:08;2.33;;;0.57;;
67712;SDS011;67640;55.784;49.138;2024-01-10T22:27:14;2.70;;;0.60;;
67712;SDS011;67640;55.784;49.138;2024-01-10T22:32:19;2.15;;;0.45;;
67712;SDS011;67640;55.784;49.138;2024-01-10T22:37:36;6.60;;;1.50;;
67712;SDS011;67640;55.784;49.138;2024-01-10T22:42:41;3.72;;;0.80;;
67712;SDS011;67640;55.784;49.138;2024-01-10T22:48:00;4.22;;;0.80;;
67712;SDS011;67640;55.784;49.138;2024-01-10T22:53:06;5.53;;;1.03;;
67712;SDS011;67640;55.784;49.138;2024-01-10T22:58:24;1.83;;;0.60;;
67712;SDS011;67640;55.784;49.138;2024-01-10T23:03:28;2.22;;;0.68;;
67712;SDS011;67640;55.784;49.138;2024-01-10T23:08:47;2.90;;;0.50;;
67712;SDS011;67640;55.784;49.138;2024-01-10T23:14:06;1.62;;;0.37;;
67712;SDS011;67640;55.784;49.138;2024-01-10T23:19:26;3.20;;;0.45;;
67712;SDS011;67640;55.784;49.138;2024-01-10T23:24:45;3.00;;;0.90;;
67712;SDS011;67640;55.784;49.138;2024-01-10T23:29:51;3.25;;;0.60;;
67712;SDS011;67640;55.784;49.138;2024-01-10T23:34:55;4.37;;;1.00;;
67712;SDS011;67640;55.784;49.138;2024-01-10T23:40:00;1.72;;;0.47;;
67712;SDS011;67640;55.784;49.138;2024-01-10T23:45:19;6.75;;;0.68;;
67712;SDS011;67640;55.784;49.138;2024-01-10T23:50:24;3.92;;;1.20;;
67712;SDS011;67640;55.784;49.138;2024-01-10T23:55:30;1.15;;;0.30;;
